Time;durP1;ratioP1;P1;durP2;ratioP2;P2;SDS_P1;SDS_P2;PMS_P1;PMS_P2;Temp;Humidity;BMP_temperature;BMP_pressure;BME280_temperature;BME280_humidity;BME280_pressure;Samples;Min_cycle;Max_cycle;Signal;HPM_P1;HPM_P2
2023/09/12 00:04:28;;;;;;;8.02;6.00;;;;;;;21.69;48.75;99362.09;10350904;28;20312;-36
2023/09/12 00:09:30;;;;;;;8.55;5.53;;;;;;;22.58;47.32;99320.22;10348722;28;20308;-35
2023/09/12 00:14:31;;;;;;;10.98;5.95;;;;;;;22.04;48.52;99341.50;10353118;28;20236;-36
2023/09/12 00:19:35;;;;;;;11.68;6.40;;;;;;;21.89;48.66;99344.19;10347886;28;20703;-36
2023/09/12 00:24:37;;;;;;;13.77;5.78;;;;;;;22.59;47.13;99371.75;10351718;28;20245;-36
2023/09/12 00:29:40;;;;;;;9.85;5.97;;;;;;;21.05;49.61;99374.94;10343007;28;20584;-39
2023/09/12 00:34:41;;;;;;;8.38;6.13;;;;;;;21.40;49.76;99329.09;10348580;28;20237;-36
2023/09/12 00:39:43;;;;;;;9.68;6.32;;;;;;;23.76;45.75;99278.75;10353261;28;20225;-36
2023/09/12 00:44:45;;;;;;;13.27;6.90;;;;;;;22.11;47.73;99357.56;10350607;28;20241;-37
2023/09/12 00:49:49;;;;;;;10.32;6.28;;;;;;;21.86;48.34;99334.63;10351364;28;20291;-38
2023/09/12 00:54:57;;;;;;;12.15;6.25;;;;;;;23.68;45.76;99261.03;10348235;28;20364;-35
2023/09/12 01:00:10;;;;;;;6.68;5.53;;;;;;;25.03;43.25;99308.66;10349861;28;20726;-37
2023/09/12 01:05:14;;;;;;;10.02;5.75;;;;;;;23.41;45.78;99365.22;10350309;28;20677;-37
2023/09/12 01:10:16;;;;;;;10.35;5.97;;;;;;;23.48;45.57;99349.34;10347692;28;20275;-36
2023/09/12 01:15:18;;;;;;;9.05;5.57;;;;;;;24.95;43.23;99303.03;10349029;28;20662;-36
2023/09/12 01:20:30;;;;;;;10.23;5.32;;;;;;;25.11;43.20;99305.25;10352239;28;20244;-36
2023/09/12 01:25:57;;;;;;;6.97;5.70;;;;;;;24.32;44.40;99327.47;10348020;28;20244;-37
2023/09/12 01:31:00;;;;;;;8.98;6.00;;;;;;;24.04;44.97;99281.78;10350882;28;20225;-37
2023/09/12 01:36:02;;;;;;;12.05;6.25;;;;;;;24.40;44.37;99289.69;10348888;28;20241;-36
2023/09/12 01:41:05;;;;;;;11.63;6.03;;;;;;;24.59;43.84;99317.91;10349291;28;20237;-36
2023/09/12 01:46:07;;;;;;;6.57;5.18;;;;;;;22.05;47.24;99354.03;10343736;28;20607;-37
2023/09/12 01:51:10;;;;;;;10.07;5.82;;;;;;;24.27;44.35;99250.97;10345737;28;20653;-37
2023/09/12 01:56:13;;;;;;;11.57;6.13;;;;;;;22.54;47.20;99309.06;10348269;28;20234;-38
2023/09/12 02:01:15;;;;;;;9.32;6.03;;;;;;;22.80;47.24;99274.31;10349169;28;20285;-36
2023/09/12 02:06:17;;;;;;;10.60;6.10;;;;;;;24.68;43.99;99257.94;10348397;28;20283;-37
2023/09/12 02:11:18;;;;;;;9.70;5.72;;;;;;;22.31;46.70;99359.47;10348191;28;20694;-35
2023/09/12 02:16:20;;;;;;;6.28;5.45;;;;;;;21.83;47.69;99327.03;10347260;28;20259;-36
2023/09/12 02:21:22;;;;;;;10.65;5.53;;;;;;;22.22;47.56;99298.41;10343912;28;20794;-37
2023/09/12 02:26:24;;;;;;;8.38;6.38;;;;;;;20.60;51.02;99321.09;10346254;28;20243;-36
2023/09/12 02:31:25;;;;;;;8.10;6.25;;;;;;;23.70;45.21;99274.41;10346698;28;20241;-37
2023/09/12 02:36:28;;;;;;;10.63;6.45;;;;;;;23.34;46.36;99253.63;10346986;28;20267;-37
2023/09/12 02:41:30;;;;;;;9.27;6.47;;;;;;;21.32;49.67;99314.06;10342054;28;20229;-35
2023/09/12 02:46:32;;;;;;;11.13;6.80;;;;;;;21.69;49.27;99280.44;10346864;28;20283;-37
2023/09/12 02:51:38;;;;;;;11.70;7.70;;;;;;;22.61;47.59;99226.97;10346325;28;20229;-36
2023/09/12 02:56:40;;;;;;;10.27;7.15;;;;;;;23.20;46.33;99258.88;10346835;28;20228;-36
2023/09/12 03:01:41;;;;;;;11.20;6.38;;;;;;;22.99;46.24;99309.97;10344483;28;20909;-35
2023/09/12 03:06:43;;;;;;;9.07;6.50;;;;;;;24.57;43.86;99270.88;10347622;28;20241;-36
2023/09/12 03:11:45;;;;;;;7.95;5.97;;;;;;;24.28;44.19;99279.94;10345458;28;20265;-36
2023/09/12 03:16:47;;;;;;;7.88;5.95;;;;;;;23.40;45.78;99323.47;10347814;28;20226;-37
2023/09/12 03:21:49;;;;;;;10.13;6.57;;;;;;;24.29;44.17;99298.00;10344024;28;20617;-37
2023/09/12 03:26:51;;;;;;;11.43;6.22;;;;;;;22.78;46.67;99335.72;10391259;23;20313;-37
2023/09/12 03:31:53;;;;;;;10.45;6.47;;;;;;;23.70;45.29;99279.88;10386429;28;20836;-37
2023/09/12 03:36:55;;;;;;;12.50;6.93;;;;;;;21.02;49.81;99312.06;10347574;28;20237;-37
2023/09/12 03:41:57;;;;;;;11.25;6.70;;;;;;;21.60;48.71;99285.59;10347484;28;20255;-36
2023/09/12 03:46:59;;;;;;;9.20;6.70;;;;;;;20.97;50.54;99268.53;10340398;28;20245;-37
2023/09/12 03:52:01;;;;;;;9.38;6.63;;;;;;;23.08;45.90;99299.34;10343467;28;20233;-36
2023/09/12 03:57:03;;;;;;;9.23;6.28;;;;;;;23.36;45.32;99302.47;10342804;28;20419;-37
2023/09/12 04:02:05;;;;;;;13.82;7.00;;;;;;;23.03;46.13;99277.53;10342469;28;20582;-36
2023/09/12 04:07:08;;;;;;;6.93;6.00;;;;;;;23.05;46.19;99292.50;10343378;28;20245;-37
2023/09/12 04:12:09;;;;;;;11.18;6.47;;;;;;;23.43;45.59;99259.28;10350552;28;20231;-36
2023/09/12 04:17:11;;;;;;;8.52;6.78;;;;;;;24.02;44.69;99275.78;10352823;28;20626;-36
2023/09/12 04:22:13;;;;;;;9.48;6.47;;;;;;;21.22;49.60;99328.50;10351165;28;20252;-37
2023/09/12 04:27:15;;;;;;;9.02;5.97;;;;;;;21.71;48.21;99302.78;10349177;28;20707;-38
2023/09/12 04:32:23;;;;;;;8.25;5.68;;;;;;;24.09;44.39;99268.91;10348526;28;20287;-37
2023/09/12 04:37:25;;;;;;;9.18;6.13;;;;;;;23.59;45.08;99311.88;10349181;28;20243;-36
2023/09/12 04:42:27;;;;;;;8.70;5.93;;;;;;;24.33;44.25;99281.81;10348868;28;20306;-37
2023/09/12 04:47:28;;;;;;;11.93;7.15;;;;;;;23.93;44.19;99305.66;10349899;28;20244;-37
2023/09/12 04:52:30;;;;;;;11.43;7.22;;;;;;;23.46;44.89;99332.44;10349976;28;20245;-37
2023/09/12 04:57:34;;;;;;;7.55;5.95;;;;;;;23.78;44.49;99320.25;10345808;28;20241;-37
2023/09/12 05:02:36;;;;;;;9.73;7.25;;;;;;;24.48;43.74;99295.34;10349972;28;20238;-37
2023/09/12 05:07:38;;;;;;;11.07;6.30;;;;;;;23.84;44.27;99332.78;10347642;28;20241;-38
2023/09/12 05:12:40;;;;;;;11.18;6.45;;;;;;;24.11;43.90;99332.28;10349142;28;20295;-38
2023/09/12 05:17:42;;;;;;;12.55;7.78;;;;;;;23.76;44.81;99333.38;10345666;28;20233;-36
2023/09/12 05:22:43;;;;;;;14.02;7.72;;;;;;;23.63;45.52;99324.72;10349989;28;20344;-38
2023/09/12 05:27:45;;;;;;;11.40;8.13;;;;;;;23.50;46.11;99325.31;10349978;28;20244;-36
2023/09/12 05:32:47;;;;;;;11.65;8.25;;;;;;;21.46;50.53;99338.94;10348827;28;20228;-37
2023/09/12 05:37:50;;;;;;;12.32;8.77;;;;;;;21.55;50.68;99303.84;10347573;28;20237;-38
2023/09/12 05:42:52;;;;;;;10.38;7.57;;;;;;;21.69;50.25;99320.47;10358441;28;20237;-38
2023/09/12 05:47:55;;;;;;;11.88;8.00;;;;;;;22.58;49.23;99282.06;10343296;28;20722;-38
2023/09/12 05:52:57;;;;;;;11.02;8.70;;;;;;;22.66;48.92;99306.84;10345851;28;20661;-38
2023/09/12 05:57:58;;;;;;;13.15;8.63;;;;;;;22.97;48.58;99295.81;10345572;28;20229;-38
2023/09/12 06:03:00;;;;;;;11.30;8.57;;;;;;;23.07;47.94;99316.81;10345754;28;20248;-37
2023/09/12 06:08:03;;;;;;;11.93;8.98;;;;;;;21.38;51.66;99350.34;10345019;28;20932;-37
2023/09/12 06:13:05;;;;;;;14.40;9.07;;;;;;;22.31;49.66;99321.31;10346049;28;20233;-37
2023/09/12 06:18:07;;;;;;;14.25;9.82;;;;;;;22.04;50.27;99324.34;10346660;28;20315;-37
2023/09/12 06:23:10;;;;;;;11.85;8.73;;;;;;;20.67;53.29;99362.47;10347117;28;20233;-37
2023/09/12 06:28:12;;;;;;;11.20;9.55;;;;;;;21.48;51.98;99357.72;10345938;28;20233;-37
2023/09/12 06:33:13;;;;;;;12.82;9.75;;;;;;;21.59;52.33;99324.81;10345943;28;20230;-38
2023/09/12 06:38:16;;;;;;;11.55;9.25;;;;;;;21.10;53.28;99341.47;10343306;28;20256;-39
2023/09/12 06:43:17;;;;;;;13.48;9.10;;;;;;;22.82;49.69;99317.69;10345559;28;20311;-37
2023/09/12 06:48:19;;;;;;;11.38;9.20;;;;;;;22.01;51.02;99352.13;10344260;28;20235;-37
2023/09/12 06:53:21;;;;;;;12.35;9.43;;;;;;;22.44;50.30;99336.31;10345859;28;20237;-36
2023/09/12 06:58:23;;;;;;;13.48;9.07;;;;;;;22.38;50.58;99343.66;10343070;28;20233;-38
2023/09/12 07:03:24;;;;;;;10.85;8.70;;;;;;;23.72;47.81;99349.53;10344590;28;20306;-37
2023/09/12 07:08:28;;;;;;;9.32;8.32;;;;;;;23.08;48.62;99392.94;10344164;28;20256;-37
2023/09/12 07:13:31;;;;;;;10.55;8.25;;;;;;;24.45;46.55;99349.78;10347124;28;20360;-37
2023/09/12 07:18:33;;;;;;;9.20;8.25;;;;;;;24.05;46.70;99390.00;10346508;28;20242;-37
2023/09/12 07:23:35;;;;;;;9.95;7.85;;;;;;;22.33;49.82;99409.88;10341927;28;20327;-36
2023/09/12 07:28:37;;;;;;;9.32;8.05;;;;;;;23.69;47.65;99361.00;10345068;28;20256;-37
2023/09/12 07:33:39;;;;;;;10.23;7.55;;;;;;;23.09;47.33;99401.91;10346451;28;20229;-37
2023/09/12 07:38:42;;;;;;;14.25;7.57;;;;;;;23.09;47.15;99429.22;10343823;28;20236;-36
2023/09/12 07:43:44;;;;;;;12.20;8.10;;;;;;;22.97;48.20;99355.00;10344384;28;20618;-36
2023/09/12 07:48:46;;;;;;;18.05;8.18;;;;;;;23.50;47.03;99346.34;10343024;28;20360;-36
2023/09/12 07:53:48;;;;;;;10.55;7.78;;;;;;;23.05;48.81;99333.41;10354306;28;20780;-38
2023/09/12 07:58:50;;;;;;;10.90;8.02;;;;;;;23.49;46.67;99377.47;10349097;28;20261;-36
2023/09/12 08:03:52;;;;;;;13.32;8.60;;;;;;;23.73;46.09;99372.19;10348366;28;20786;-37
2023/09/12 08:08:54;;;;;;;9.63;7.38;;;;;;;23.66;46.08;99390.81;10349337;28;20237;-37
2023/09/12 08:13:55;;;;;;;9.43;6.70;;;;;;;24.19;45.11;99358.19;10348416;28;20225;-37
2023/09/12 08:18:59;;;;;;;11.90;7.65;;;;;;;23.74;45.64;99406.59;10350859;28;20558;-37
2023/09/12 08:24:00;;;;;;;9.10;6.90;;;;;;;23.37;46.38;99416.03;10350056;28;20229;-37
2023/09/12 08:29:02;;;;;;;8.43;6.13;;;;;;;23.56;46.04;99430.66;10351134;28;20229;-37
2023/09/12 08:34:04;;;;;;;8.35;6.53;;;;;;;23.75;46.14;99422.72;10350346;28;20291;-38
2023/09/12 08:39:08;;;;;;;8.93;6.57;;;;;;;23.74;46.09;99417.53;10347603;28;20775;-37
2023/09/12 08:44:10;;;;;;;8.23;6.55;;;;;;;24.26;45.83;99399.72;10347244;28;20925;-37
2023/09/12 08:49:12;;;;;;;9.85;7.22;;;;;;;24.10;45.55;99425.47;10348493;28;20672;-37
2023/09/12 08:54:14;;;;;;;13.07;7.30;;;;;;;24.04;45.62;99432.91;10349349;28;20479;-37
2023/09/12 08:59:16;;;;;;;11.75;7.63;;;;;;;24.92;44.59;99392.00;10343726;28;20264;-38
2023/09/12 09:04:19;;;;;;;10.55;7.28;;;;;;;25.43;43.55;99385.94;10350587;28;20672;-37
2023/09/12 09:09:22;;;;;;;9.40;6.97;;;;;;;26.07;42.75;99360.91;10346985;28;20283;-37
2023/09/12 09:14:24;;;;;;;10.25;6.50;;;;;;;26.19;42.12;99374.97;10348675;28;20233;-37
2023/09/12 09:19:42;;;;;;;9.07;6.22;;;;;;;25.62;41.95;99409.78;10342107;28;20236;-37
2023/09/12 09:24:45;;;;;;;7.50;6.22;;;;;;;26.39;40.95;99384.81;10346784;28;20245;-37
2023/09/12 09:29:48;;;;;;;6.90;5.70;;;;;;;26.20;41.69;99351.13;10345987;28;20627;-37
2023/09/12 09:34:52;;;;;;;9.30;5.85;;;;;;;25.34;42.82;99392.34;10345595;28;20229;-36
2023/09/12 09:39:55;;;;;;;8.85;6.35;;;;;;;26.51;41.17;99364.31;10348783;28;20220;-36
2023/09/12 09:44:57;;;;;;;9.05;6.03;;;;;;;26.62;41.25;99351.22;10342978;28;20225;-37
2023/09/12 09:49:59;;;;;;;8.50;5.70;;;;;;;26.37;39.41;99348.63;10345670;28;20213;-37
2023/09/12 09:55:01;;;;;;;7.80;5.05;;;;;;;25.79;39.12;99374.50;10347397;28;20236;-36
2023/09/12 10:00:08;;;;;;;9.35;5.82;;;;;;;26.03;38.34;99392.78;10344136;28;20208;-37
2023/09/12 10:05:11;;;;;;;6.57;5.00;;;;;;;27.15;38.40;99348.00;10347757;28;20620;-37
2023/09/12 10:10:13;;;;;;;8.68;5.22;;;;;;;27.17;37.98;99353.19;10342361;28;20260;-37
2023/09/12 10:15:17;;;;;;;7.60;5.28;;;;;;;27.27;38.92;99345.56;10349938;28;20232;-37
2023/09/12 10:20:24;;;;;;;6.60;5.20;;;;;;;27.63;38.30;99325.53;10347539;28;20325;-36
2023/09/12 10:25:28;;;;;;;8.38;5.85;;;;;;;28.11;37.31;99306.81;10346887;28;20233;-37
2023/09/12 10:30:31;;;;;;;7.32;5.22;;;;;;;28.57;36.96;99314.66;10345478;28;20229;-38
2023/09/12 10:35:35;;;;;;;7.60;5.43;;;;;;;27.92;37.58;99301.50;10348879;28;20225;-37
2023/09/12 10:40:38;;;;;;;9.82;4.93;;;;;;;29.20;36.04;99284.28;10345356;28;20229;-36
2023/09/12 10:45:45;;;;;;;9.55;5.40;;;;;;;28.33;37.90;99306.78;10344656;28;20273;-36
2023/09/12 10:50:47;;;;;;;8.00;5.22;;;;;;;29.64;35.74;99259.47;10343666;28;20229;-37
2023/09/12 10:56:16;;;;;;;8.07;4.90;;;;;;;29.33;36.30;99277.78;10345866;28;20233;-35
2023/09/12 11:06:22;;;;;;;5.70;4.72;;;;;;;27.87;38.05;99250.22;10429230;28;20821;-74
2023/09/12 11:11:24;;;;;;;9.30;4.75;;;;;;;27.36;37.98;99256.94;10312811;28;20225;-74
2023/09/12 11:16:25;;;;;;;12.68;4.85;;;;;;;28.11;36.46;99252.63;10315053;28;20229;-74
2023/09/12 11:21:33;;;;;;;9.68;4.63;;;;;;;27.82;36.71;99273.16;10318005;28;20721;-72
2023/09/12 11:26:35;;;;;;;8.88;5.43;;;;;;;28.16;36.16;99240.69;10317967;28;20229;-74
2023/09/12 11:31:41;;;;;;;9.38;5.72;;;;;;;27.87;37.00;99272.22;10316551;28;20233;-73
2023/09/12 11:36:45;;;;;;;7.25;5.60;;;;;;;29.09;36.24;99230.63;10317977;28;20226;-73
2023/09/12 11:41:47;;;;;;;7.57;5.40;;;;;;;28.50;35.92;99266.72;10311350;28;20249;-72
2023/09/12 11:46:50;;;;;;;9.02;5.55;;;;;;;29.23;36.51;99224.97;10315230;28;20253;-72
2023/09/12 11:51:53;;;;;;;7.70;5.13;;;;;;;29.41;35.90;99223.81;10319776;28;22377;-72
2023/09/12 11:56:59;;;;;;;8.00;5.03;;;;;;;27.56;37.23;99280.38;10314236;28;20237;-72
2023/09/12 12:02:05;;;;;;;7.15;4.93;;;;;;;28.00;36.54;99249.34;10308991;28;20293;-72
2023/09/12 12:07:07;;;;;;;8.38;5.50;;;;;;;29.96;35.42;99193.88;10314969;28;20230;-72
2023/09/12 12:12:10;;;;;;;10.13;4.97;;;;;;;29.11;36.44;99242.09;10311652;28;20226;-73
2023/09/12 12:17:12;;;;;;;7.88;5.40;;;;;;;28.51;36.60;99238.06;10293417;28;20292;-72
2023/09/12 12:22:14;;;;;;;6.63;4.65;;;;;;;28.68;36.42;99256.59;10289984;28;20238;-72
2023/09/12 12:27:16;;;;;;;7.45;5.07;;;;;;;29.44;34.87;99223.19;10292300;28;20231;-72
2023/09/12 12:32:17;;;;;;;7.43;5.43;;;;;;;29.24;35.86;99202.59;10283620;28;20329;-72
2023/09/12 12:37:19;;;;;;;6.95;4.95;;;;;;;29.77;35.36;99208.88;10286759;28;20261;-73
2023/09/12 12:42:23;;;;;;;8.77;5.20;;;;;;;28.76;36.11;99239.31;10288594;28;20257;-72
2023/09/12 12:47:25;;;;;;;8.52;5.50;;;;;;;30.08;34.86;99160.94;10285038;28;20732;-72
2023/09/12 12:52:27;;;;;;;8.68;4.97;;;;;;;30.46;35.22;99204.22;10289249;28;20636;-72
2023/09/12 12:57:28;;;;;;;8.25;5.03;;;;;;;29.99;34.59;99209.78;10286220;28;20231;-72
2023/09/12 13:02:31;;;;;;;7.07;5.15;;;;;;;29.51;35.01;99200.63;10288170;28;20238;-72
2023/09/12 13:07:34;;;;;;;7.88;4.93;;;;;;;30.12;34.65;99163.84;10288040;28;20250;-72
2023/09/12 13:12:37;;;;;;;8.70;5.20;;;;;;;29.63;34.95;99194.47;10287175;28;20818;-72
2023/09/12 13:17:41;;;;;;;6.57;4.97;;;;;;;29.70;34.41;99205.81;10286679;28;20293;-72
2023/09/12 13:22:43;;;;;;;5.60;4.30;;;;;;;30.42;33.28;99178.47;10288201;28;20238;-72
2023/09/12 13:27:45;;;;;;;6.82;4.35;;;;;;;30.93;31.92;99168.22;10283264;28;20311;-73
2023/09/12 13:32:46;;;;;;;7.75;4.43;;;;;;;29.96;33.22;99191.13;10279327;28;20242;-73
2023/09/12 13:38:09;;;;;;;10.52;5.18;;;;;;;29.52;35.99;99158.16;10282458;28;20234;-73
2023/09/12 13:50:10;;;;;;;9.40;5.40;;;;;;;29.70;35.11;99126.66;10277654;28;21072;-73
2023/09/12 13:55:15;;;;;;;8.93;5.00;;;;;;;30.00;35.01;99126.72;10281243;28;20340;-73
2023/09/12 14:00:37;;;;;;;6.32;4.72;;;;;;;30.20;33.33;99127.13;10270907;28;20245;-73
2023/09/12 14:05:39;;;;;;;6.50;4.50;;;;;;;30.32;32.90;99145.72;10278024;28;20846;-73
2023/09/12 14:10:43;;;;;;;6.55;4.43;;;;;;;30.47;32.28;99142.38;10330479;28;20592;-71
2023/09/12 14:15:46;;;;;;;6.40;4.00;;;;;;;30.46;31.45;99146.28;10320374;28;20740;-72
2023/09/12 14:21:09;;;;;;;5.43;4.22;;;;;;;28.87;33.13;99138.75;10315734;28;20323;-73
2023/09/12 14:26:12;;;;;;;5.18;3.95;;;;;;;29.45;31.87;99133.03;10320082;28;20252;-72
2023/09/12 14:31:15;;;;;;;7.15;3.90;;;;;;;29.51;32.19;99146.31;10311262;28;20375;-71
2023/09/12 14:36:18;;;;;;;8.07;4.45;;;;;;;30.20;33.70;99118.88;10320038;28;20238;-73
2023/09/12 14:41:19;;;;;;;7.00;4.38;;;;;;;30.43;33.12;99119.34;10318870;28;20234;-72
2023/09/12 14:46:21;;;;;;;8.57;4.88;;;;;;;29.81;33.92;99101.53;10320204;28;20237;-73
2023/09/12 14:51:23;;;;;;;9.18;4.40;;;;;;;30.28;33.57;99089.59;10326161;28;20261;-72
2023/09/12 14:56:33;;;;;;;6.53;4.97;;;;;;;29.85;33.90;99122.56;10319229;28;20951;-70
2023/09/12 15:01:37;;;;;;;5.20;4.47;;;;;;;29.88;33.47;99097.09;10318412;28;20333;-71
2023/09/12 15:06:39;;;;;;;4.57;3.70;;;;;;;29.50;33.48;99106.16;10322768;28;20384;-70
2023/09/12 15:11:40;;;;;;;7.78;4.38;;;;;;;29.84;32.88;99084.28;10314680;28;20316;-71
2023/09/12 15:16:42;;;;;;;8.23;4.45;;;;;;;29.71;31.91;99108.19;10322256;28;20308;-72
2023/09/12 15:21:44;;;;;;;7.90;3.88;;;;;;;29.07;32.44;99131.00;10322333;28;20237;-72
2023/09/12 15:26:46;;;;;;;13.80;4.85;;;;;;;28.96;32.63;99117.56;10316195;28;20234;-74
2023/09/12 15:31:48;;;;;;;6.47;4.28;;;;;;;29.93;32.32;99093.34;10322218;28;20354;-74
2023/09/12 15:36:49;;;;;;;7.75;4.47;;;;;;;30.01;31.99;99109.03;10312061;28;20759;-74
2023/09/12 15:41:52;;;;;;;4.78;3.90;;;;;;;29.96;32.41;99100.13;10315916;28;20242;-74
2023/09/12 15:46:54;;;;;;;5.30;3.83;;;;;;;29.76;31.96;99115.47;10319394;28;20241;-74
2023/09/12 15:52:16;;;;;;;6.57;4.10;;;;;;;29.86;32.10;99126.94;10329084;28;20241;-74
2023/09/12 16:03:43;;;;;;;4.85;3.53;;;;;;;29.87;31.11;99117.50;10303277;28;20237;-73
2023/09/12 16:15:14;;;;;;;10.30;4.43;;;;;;;29.75;32.82;99124.88;10304135;28;20221;-74
2023/09/12 16:26:17;;;;;;;7.15;4.20;;;;;;;29.85;32.85;99133.59;10303112;28;20325;-76
2023/09/12 16:31:19;;;;;;;5.35;4.15;;;;;;;29.99;32.52;99113.25;10330916;28;20743;-72
2023/09/12 16:36:20;;;;;;;6.53;4.00;;;;;;;29.98;32.29;99125.44;10324130;28;20238;-73
2023/09/12 16:41:22;;;;;;;5.63;3.72;;;;;;;31.12;31.67;99103.41;10334728;28;20268;-73
2023/09/12 16:46:24;;;;;;;4.93;3.75;;;;;;;31.79;31.30;99093.06;10331289;28;20237;-70
2023/09/12 16:51:26;;;;;;;6.80;4.03;;;;;;;30.46;32.08;99142.72;10330760;28;20665;-72
2023/09/12 16:56:27;;;;;;;6.57;3.78;;;;;;;31.61;31.68;99098.00;10332580;28;20244;-71
2023/09/12 17:01:29;;;;;;;5.10;3.75;;;;;;;30.39;33.92;99101.84;10332614;28;20498;-71
2023/09/12 17:06:31;;;;;;;7.35;4.85;;;;;;;28.62;35.64;99090.00;10335220;28;20316;-72
2023/09/12 17:11:33;;;;;;;5.22;3.67;;;;;;;29.48;33.52;99088.31;10334596;28;20245;-72
2023/09/12 17:16:34;;;;;;;7.03;4.03;;;;;;;28.27;34.90;99093.50;10334557;28;20257;-72
2023/09/12 17:21:36;;;;;;;4.88;3.88;;;;;;;29.51;33.79;99090.41;10331209;28;20265;-73
2023/09/12 17:26:38;;;;;;;8.73;4.07;;;;;;;29.88;34.23;99071.47;10325294;28;20238;-72
2023/09/12 17:31:39;;;;;;;5.30;3.67;;;;;;;28.41;36.47;99105.19;10328025;28;20467;-73
2023/09/12 17:36:44;;;;;;;4.75;3.80;;;;;;;27.62;35.78;99128.00;10326637;28;20233;-72
2023/09/12 17:41:46;;;;;;;4.70;3.22;;;;;;;26.11;34.65;99153.59;10327998;28;20241;-72
2023/09/12 17:46:48;;;;;;;4.80;3.30;;;;;;;26.73;33.63;99158.66;10318271;28;20727;-72
2023/09/12 17:51:50;;;;;;;4.32;3.00;;;;;;;26.21;33.53;99174.50;10325196;28;20729;-72
2023/09/12 17:56:51;;;;;;;6.38;3.35;;;;;;;26.33;33.54;99163.06;10314066;28;20234;-73
2023/09/12 18:01:53;;;;;;;4.88;3.03;;;;;;;26.52;33.07;99166.50;10320493;28;20232;-72
2023/09/12 18:06:55;;;;;;;6.80;3.45;;;;;;;25.62;34.02;99187.91;10323757;28;20242;-72
2023/09/12 18:11:57;;;;;;;5.15;3.13;;;;;;;26.46;33.15;99159.50;10322885;28;20234;-72
2023/09/12 18:16:58;;;;;;;5.75;3.30;;;;;;;26.79;32.31;99172.25;10318336;28;20241;-71
2023/09/12 18:22:00;;;;;;;3.38;2.70;;;;;;;25.40;33.46;99204.97;10320349;28;20701;-72
2023/09/12 18:27:02;;;;;;;4.00;3.10;;;;;;;25.26;33.28;99230.38;10322474;28;20229;-72
2023/09/12 18:32:03;;;;;;;3.80;2.83;;;;;;;26.64;32.09;99184.38;10321750;28;20336;-73
2023/09/12 18:37:06;;;;;;;4.93;3.63;;;;;;;26.12;32.20;99221.00;10318196;28;20623;-71
2023/09/12 18:42:09;;;;;;;4.72;3.30;;;;;;;26.36;32.02;99229.06;10323489;28;20323;-71
2023/09/12 18:47:11;;;;;;;3.85;3.00;;;;;;;25.34;32.91;99278.19;10315562;28;20825;-72
2023/09/12 18:52:13;;;;;;;5.60;3.30;;;;;;;26.60;32.33;99230.00;10314109;28;20229;-71
2023/09/12 18:57:15;;;;;;;3.40;2.90;;;;;;;26.37;32.48;99227.16;10317432;28;20253;-71
2023/09/12 19:02:16;;;;;;;3.80;3.40;;;;;;;25.04;33.74;99282.94;10322540;28;20237;-71
2023/09/12 19:07:18;;;;;;;4.45;3.10;;;;;;;25.26;33.47;99319.91;10327809;28;20322;-71
2023/09/12 19:12:20;;;;;;;5.20;3.35;;;;;;;25.80;33.52;99269.25;10318950;28;20262;-71
2023/09/12 19:17:21;;;;;;;4.40;2.95;;;;;;;26.82;32.76;99279.47;10322155;28;20229;-71
2023/09/12 19:22:23;;;;;;;4.68;2.90;;;;;;;27.73;32.17;99291.50;10322338;28;20237;-71
2023/09/12 19:27:25;;;;;;;6.10;3.00;;;;;;;26.82;33.24;99301.44;10330932;28;20352;-71
2023/09/12 19:32:27;;;;;;;5.57;3.00;;;;;;;26.53;34.37;99312.69;10334614;28;20229;-71
2023/09/12 19:37:29;;;;;;;4.85;3.05;;;;;;;27.49;33.90;99291.78;10334061;28;20299;-72
2023/09/12 19:42:31;;;;;;;4.72;3.25;;;;;;;27.62;34.07;99317.59;10325223;28;20233;-73
2023/09/12 19:47:34;;;;;;;4.15;3.20;;;;;;;26.92;35.81;99314.97;10325715;28;20769;-70
2023/09/12 19:52:56;;;;;;;5.97;3.70;;;;;;;26.10;37.75;99338.38;10325763;28;20225;-70
2023/09/12 19:57:57;;;;;;;6.15;3.65;;;;;;;26.62;38.02;99313.63;10334678;28;20238;-71
2023/09/12 20:02:59;;;;;;;6.93;3.72;;;;;;;27.45;37.16;99316.31;10325617;28;20746;-72
2023/09/12 20:08:01;;;;;;;5.63;3.53;;;;;;;26.60;36.95;99340.53;10327315;28;20233;-70
2023/09/12 20:13:03;;;;;;;5.95;3.45;;;;;;;25.56;37.65;99395.34;10325456;28;20318;-72
2023/09/12 20:18:12;;;;;;;6.28;3.80;;;;;;;25.01;39.06;99394.91;10328329;28;20289;-74
2023/09/12 20:23:14;;;;;;;5.45;3.30;;;;;;;24.94;40.06;99373.38;10322765;28;20713;-74
2023/09/12 20:28:16;;;;;;;5.85;3.72;;;;;;;26.16;38.52;99366.53;10332266;28;20255;-74
2023/09/12 20:33:17;;;;;;;6.72;3.92;;;;;;;24.81;41.05;99402.22;10322795;28;22154;-74
2023/09/12 20:38:19;;;;;;;4.85;3.70;;;;;;;23.67;42.99;99404.19;10327693;28;20240;-74
2023/09/12 20:43:22;;;;;;;4.90;3.28;;;;;;;23.55;43.50;99385.38;10324771;28;20233;-73
2023/09/12 20:48:24;;;;;;;4.57;3.78;;;;;;;23.61;43.81;99397.91;10327294;28;20225;-73
2023/09/12 20:53:25;;;;;;;6.18;3.22;;;;;;;23.89;43.22;99436.56;10326432;28;20230;-73
2023/09/12 20:58:27;;;;;;;4.10;3.45;;;;;;;23.52;44.76;99426.88;10326350;28;20732;-74
2023/09/12 21:03:29;;;;;;;4.93;3.33;;;;;;;23.67;44.53;99428.75;10324200;28;20237;-74
2023/09/12 21:08:31;;;;;;;5.07;3.33;;;;;;;23.16;45.18;99451.59;10324112;28;20229;-74
2023/09/12 21:13:33;;;;;;;3.55;2.92;;;;;;;23.96;44.00;99431.59;10322385;28;20234;-73
2023/09/12 21:18:34;;;;;;;4.75;3.17;;;;;;;23.92;44.48;99457.84;10329151;28;20331;-73
2023/09/12 21:23:36;;;;;;;4.90;3.30;;;;;;;23.72;44.93;99463.41;10322811;28;20707;-74
2023/09/12 21:28:38;;;;;;;5.55;3.10;;;;;;;23.49;44.59;99481.22;10324798;28;20233;-74
2023/09/12 21:33:41;;;;;;;4.55;3.08;;;;;;;23.08;45.74;99476.72;10322344;28;20316;-73
2023/09/12 21:38:43;;;;;;;3.78;3.38;;;;;;;23.74;44.63;99496.72;10318267;28;20735;-74
2023/09/12 21:43:45;;;;;;;3.63;2.85;;;;;;;23.23;45.38;99506.69;10321895;28;20711;-73
2023/09/12 21:48:49;;;;;;;4.97;3.13;;;;;;;23.89;45.07;99487.66;10317266;28;20308;-72
2023/09/12 21:53:51;;;;;;;5.93;2.95;;;;;;;22.57;46.74;99553.03;10325098;28;20232;-72
2023/09/12 21:58:53;;;;;;;3.75;3.33;;;;;;;23.62;45.25;99497.88;10328780;28;20846;-72
2023/09/12 22:03:54;;;;;;;4.53;2.92;;;;;;;23.83;45.03;99516.09;10325144;28;20236;-72
2023/09/12 22:08:56;;;;;;;3.65;2.92;;;;;;;23.52;46.00;99497.06;10327645;28;20583;-72
2023/09/12 22:13:58;;;;;;;5.15;3.30;;;;;;;23.71;44.84;99524.59;10313633;28;20234;-72
2023/09/12 22:19:01;;;;;;;3.97;3.40;;;;;;;21.93;48.60;99566.72;10320938;28;20357;-72
2023/09/12 22:24:03;;;;;;;3.40;3.10;;;;;;;22.64;47.51;99531.78;10321773;28;20230;-72
2023/09/12 22:29:04;;;;;;;4.97;3.00;;;;;;;22.02;48.77;99566.25;10319449;28;20233;-72
2023/09/12 22:34:06;;;;;;;4.85;3.40;;;;;;;22.14;48.46;99550.47;10316581;28;20229;-72
2023/09/12 22:39:07;;;;;;;5.20;2.80;;;;;;;22.22;48.04;99579.94;10322546;28;20785;-72
2023/09/12 22:44:09;;;;;;;3.42;3.13;;;;;;;24.23;44.75;99544.34;10324195;28;20398;-72
2023/09/12 22:49:11;;;;;;;4.97;3.38;;;;;;;23.79;45.57;99554.06;10322704;28;20228;-72
2023/09/12 22:54:12;;;;;;;7.50;3.22;;;;;;;23.89;45.80;99540.38;10321462;28;20603;-72
2023/09/12 22:59:14;;;;;;;4.30;3.35;;;;;;;23.00;47.33;99556.34;10324595;28;21169;-72
2023/09/12 23:04:16;;;;;;;5.43;3.13;;;;;;;21.63;49.47;99580.16;10321378;28;20504;-72
2023/09/12 23:09:18;;;;;;;3.95;3.40;;;;;;;23.50;46.31;99545.66;10321984;28;20229;-72
2023/09/12 23:14:20;;;;;;;5.88;3.28;;;;;;;23.26;46.93;99558.00;10320974;28;20909;-72
2023/09/12 23:19:22;;;;;;;5.63;3.70;;;;;;;24.53;44.96;99543.34;10322790;28;20280;-72
2023/09/12 23:24:25;;;;;;;6.78;3.75;;;;;;;23.42;46.12;99609.84;10319466;28;20253;-72
2023/09/12 23:29:27;;;;;;;4.55;3.45;;;;;;;24.43;44.47;99593.44;10324815;28;20800;-72
2023/09/12 23:34:28;;;;;;;5.60;3.53;;;;;;;23.30;47.13;99582.84;10297027;28;20226;-72
2023/09/12 23:39:30;;;;;;;3.60;3.20;;;;;;;23.33;46.04;99620.50;10324797;28;20365;-72
2023/09/12 23:44:32;;;;;;;5.05;3.30;;;;;;;23.94;45.61;99558.66;10321414;28;20700;-72
2023/09/12 23:49:33;;;;;;;4.18;3.50;;;;;;;23.36;46.51;99562.59;10318606;28;20328;-72
2023/09/12 23:54:35;;;;;;;12.85;3.22;;;;;;;22.89;46.81;99582.78;10315008;28;20894;-72
2023/09/12 23:59:40;;;;;;;5.80;3.40;;;;;;;22.32;47.67;99574.50;10321602;28;20241;-72
